createdAt,value
2023-05-17T00:02:23.578Z,8.30
2023-05-17T00:04:50.963Z,8.30
2023-05-17T00:07:18.211Z,8.20
2023-05-17T00:09:45.428Z,8.20
2023-05-17T00:12:15.192Z,8.20
2023-05-17T00:14:42.615Z,8.20
2023-05-17T00:17:09.843Z,8.20
2023-05-17T00:19:37.046Z,8.10
2023-05-17T00:22:04.630Z,8.10
2023-05-17T00:24:32.140Z,8.10
2023-05-17T00:26:59.478Z,8.10
2023-05-17T00:29:26.810Z,8.10
2023-05-17T00:31:56.713Z,8.10
2023-05-17T00:34:25.282Z,8.10
2023-05-17T00:36:56.146Z,8.10
2023-05-17T00:39:23.868Z,8.10
2023-05-17T00:41:57.852Z,8.10
2023-05-17T00:44:26.916Z,8.10
2023-05-17T00:46:55.361Z,8.10
2023-05-17T00:49:24.697Z,8.00
2023-05-17T00:51:52.049Z,8.00
2023-05-17T00:54:19.432Z,8.00
2023-05-17T00:56:46.810Z,8.00
2023-05-17T00:59:14.332Z,8.00
2023-05-17T01:01:43.320Z,7.90
2023-05-17T01:04:12.936Z,7.90
2023-05-17T01:06:42.305Z,7.90
2023-05-17T01:09:09.896Z,7.90
2023-05-17T01:11:54.435Z,7.90
2023-05-17T01:14:24.796Z,7.90
2023-05-17T01:16:56.291Z,7.90
2023-05-17T01:19:36.680Z,7.90
2023-05-17T01:22:08.746Z,7.80
2023-05-17T01:24:36.634Z,7.80
2023-05-17T01:27:06.199Z,7.80
2023-05-17T01:29:33.361Z,7.80
2023-05-17T01:32:00.565Z,7.80
2023-05-17T01:34:28.178Z,7.80
2023-05-17T01:36:58.067Z,7.80
2023-05-17T01:39:25.928Z,7.80
2023-05-17T01:41:55.585Z,7.80
2023-05-17T01:44:22.852Z,7.70
2023-05-17T01:46:50.270Z,7.80
2023-05-17T01:49:47.039Z,7.80
2023-05-17T01:52:26.132Z,7.80
2023-05-17T01:55:06.650Z,7.80
2023-05-17T01:57:35.916Z,7.70
2023-05-17T02:00:07.489Z,7.70
2023-05-17T02:02:41.725Z,7.70
2023-05-17T02:05:09.269Z,7.70
2023-05-17T02:07:40.205Z,7.70
2023-05-17T02:10:07.614Z,7.70
2023-05-17T02:12:36.604Z,7.70
2023-05-17T02:15:04.178Z,7.70
2023-05-17T02:17:34.604Z,7.70
2023-05-17T02:20:02.053Z,7.70
2023-05-17T02:22:29.940Z,7.70
2023-05-17T02:24:58.293Z,7.70
2023-05-17T02:27:25.657Z,7.60
2023-05-17T02:29:53.728Z,7.60
2023-05-17T02:32:31.687Z,7.60
2023-05-17T02:34:59.072Z,7.60
2023-05-17T02:37:28.817Z,7.60
2023-05-17T02:39:56.192Z,7.60
2023-05-17T02:42:23.645Z,7.60
2023-05-17T02:44:53.098Z,7.60
2023-05-17T02:47:23.739Z,7.60
2023-05-17T02:49:51.087Z,7.60
2023-05-17T02:52:18.435Z,7.60
2023-05-17T02:54:46.893Z,7.60
2023-05-17T02:57:14.849Z,7.50
2023-05-17T02:59:45.423Z,7.60
2023-05-17T03:02:15.791Z,7.60
2023-05-17T03:04:45.438Z,7.50
2023-05-17T03:07:12.926Z,7.50
2023-05-17T03:09:42.166Z,7.50
2023-05-17T03:12:09.869Z,7.50
2023-05-17T03:14:37.464Z,7.50
2023-05-17T03:17:07.456Z,7.50
2023-05-17T03:19:40.018Z,7.50
2023-05-17T03:22:07.464Z,7.50
2023-05-17T03:24:35.088Z,7.40
2023-05-17T03:27:08.479Z,7.40
2023-05-17T03:29:39.668Z,7.40
2023-05-17T03:32:10.096Z,7.40
2023-05-17T03:34:39.967Z,7.40
2023-05-17T03:37:10.024Z,7.30
2023-05-17T03:39:37.402Z,7.30
2023-05-17T03:42:07.297Z,7.30
2023-05-17T03:44:35.993Z,7.30
2023-05-17T03:47:13.198Z,7.30
2023-05-17T03:49:40.892Z,7.30
2023-05-17T03:52:08.393Z,7.30
2023-05-17T03:54:35.844Z,7.30
2023-05-17T03:57:03.759Z,7.30
2023-05-17T03:59:31.342Z,7.30
2023-05-17T04:01:58.872Z,7.20
2023-05-17T04:04:26.967Z,7.20
2023-05-17T04:06:54.631Z,7.20
2023-05-17T04:09:24.021Z,7.10
2023-05-17T04:12:00.751Z,7.20
2023-05-17T04:14:28.124Z,7.20
2023-05-17T04:16:58.511Z,7.10
2023-05-17T04:19:28.639Z,7.20
2023-05-17T04:21:58.556Z,7.20
2023-05-17T04:24:27.732Z,7.20
2023-05-17T04:26:57.660Z,7.10
2023-05-17T04:29:25.733Z,7.10
2023-05-17T04:31:56.296Z,7.10
2023-05-17T04:34:29.799Z,7.10
2023-05-17T04:37:00.609Z,7.10
2023-05-17T04:39:30.756Z,7.20
2023-05-17T04:41:58.800Z,7.20
2023-05-17T04:44:27.250Z,7.10
2023-05-17T04:46:55.579Z,7.20
2023-05-17T04:49:25.176Z,7.10
2023-05-17T04:51:53.029Z,7.10
2023-05-17T04:54:29.907Z,7.10
2023-05-17T04:56:59.609Z,7.10
2023-05-17T04:59:49.932Z,7.10
2023-05-17T05:02:18.275Z,7.10
2023-05-17T05:04:47.427Z,7.10
2023-05-17T05:07:18.700Z,7.10
2023-05-17T05:09:49.245Z,7.20
2023-05-17T05:12:18.364Z,7.20
2023-05-17T05:14:50.682Z,7.20
2023-05-17T05:17:20.695Z,7.20
2023-05-17T05:19:58.436Z,7.20
2023-05-17T05:22:35.448Z,7.20
2023-05-17T05:25:08.810Z,7.20
2023-05-17T05:27:42.906Z,7.30
2023-05-17T05:30:27.271Z,7.30
2023-05-17T05:32:58.532Z,7.40
2023-05-17T05:35:34.183Z,7.40
2023-05-17T05:38:09.049Z,7.40
2023-05-17T05:40:48.700Z,7.40
2023-05-17T05:43:18.511Z,7.50
2023-05-17T05:46:11.466Z,7.50
2023-05-17T05:48:47.215Z,7.60
2023-05-17T05:51:16.932Z,7.60
2023-05-17T05:53:51.976Z,7.60
2023-05-17T05:56:26.773Z,7.60
2023-05-17T05:58:57.836Z,7.60
2023-05-17T06:01:27.789Z,7.60
2023-05-17T06:04:00.579Z,7.60
2023-05-17T06:06:37.003Z,7.70
2023-05-17T06:09:27.014Z,7.70
2023-05-17T06:12:06.892Z,7.70
2023-05-17T06:14:37.595Z,7.80
2023-05-17T06:17:07.707Z,7.90
2023-05-17T06:19:56.500Z,7.90
2023-05-17T06:22:30.787Z,7.90
2023-05-17T06:24:58.348Z,7.90
2023-05-17T06:27:48.656Z,7.90
2023-05-17T06:30:36.863Z,7.90
2023-05-17T06:36:04.588Z,8.00
2023-05-17T06:38:51.505Z,8.10
2023-05-17T06:41:27.391Z,8.20
2023-05-17T06:43:54.701Z,8.20
2023-05-17T06:46:26.635Z,8.30
2023-05-17T06:48:56.429Z,8.30
2023-05-17T06:51:34.450Z,8.40
2023-05-17T06:54:07.908Z,8.40
2023-05-17T06:56:51.245Z,8.50
2023-05-17T06:59:21.138Z,8.50
2023-05-17T07:01:50.906Z,8.60
2023-05-17T07:04:19.469Z,8.60
2023-05-17T07:06:53.122Z,8.70
2023-05-17T07:09:40.624Z,8.80
2023-05-17T07:12:20.460Z,8.90
2023-05-17T07:14:56.803Z,9.00
2023-05-17T07:17:33.365Z,9.10
2023-05-17T07:20:00.744Z,9.00
2023-05-17T07:22:36.757Z,9.10
2023-05-17T07:25:06.161Z,9.20
2023-05-17T07:27:47.255Z,9.30
2023-05-17T07:30:19.464Z,9.30
2023-05-17T07:32:49.796Z,9.20
2023-05-17T07:35:21.829Z,9.10
2023-05-17T07:37:49.301Z,9.10
2023-05-17T07:40:19.221Z,9.10
2023-05-17T07:42:46.564Z,9.00
2023-05-17T07:45:13.820Z,9.00
2023-05-17T07:47:41.009Z,8.90
2023-05-17T07:50:08.674Z,8.80
2023-05-17T07:52:35.911Z,8.80
2023-05-17T07:55:05.805Z,8.80
2023-05-17T07:57:33.154Z,8.80
2023-05-17T08:00:00.536Z,8.80
2023-05-17T08:02:27.591Z,8.90
2023-05-17T08:04:54.917Z,9.00
2023-05-17T08:07:21.976Z,9.00
2023-05-17T08:09:48.991Z,9.00
2023-05-17T08:12:16.085Z,9.10
2023-05-17T08:14:43.556Z,9.20
2023-05-17T08:17:10.778Z,9.20
2023-05-17T08:19:38.001Z,9.20
2023-05-17T08:22:05.331Z,9.20
2023-05-17T08:24:32.374Z,9.20
2023-05-17T08:26:59.644Z,9.10
2023-05-17T08:29:26.783Z,9.20
2023-05-17T08:31:56.453Z,9.20
2023-05-17T08:34:23.651Z,9.40
2023-05-17T08:36:50.696Z,9.60
2023-05-17T08:39:17.797Z,9.70
2023-05-17T08:41:46.248Z,9.80
2023-05-17T08:44:13.932Z,9.90
2023-05-17T08:46:41.402Z,10.00
2023-05-17T08:49:08.500Z,10.10
2023-05-17T08:51:35.614Z,10.20
2023-05-17T08:54:06.042Z,10.20
2023-05-17T08:56:33.969Z,10.20
2023-05-17T08:59:01.458Z,10.20
2023-05-17T09:01:32.228Z,10.30
2023-05-17T09:04:00.332Z,10.40
2023-05-17T09:06:27.507Z,10.50
2023-05-17T09:08:54.972Z,10.50
2023-05-17T09:11:27.841Z,10.50
2023-05-17T09:13:58.004Z,10.50
2023-05-17T09:16:26.481Z,10.60
2023-05-17T09:18:57.090Z,10.50
2023-05-17T09:21:24.505Z,10.60
2023-05-17T09:24:04.657Z,10.70
2023-05-17T09:26:43.796Z,10.80
2023-05-17T09:29:11.488Z,10.80
2023-05-17T09:31:39.119Z,10.90
2023-05-17T09:34:08.085Z,11.00
2023-05-17T09:36:36.083Z,11.20
2023-05-17T09:39:07.788Z,11.20
2023-05-17T09:41:46.387Z,11.10
2023-05-17T09:44:13.719Z,11.10
2023-05-17T09:46:47.690Z,11.00
2023-05-17T09:49:15.326Z,11.00
2023-05-17T09:51:42.988Z,10.90
2023-05-17T09:54:10.401Z,10.80
2023-05-17T09:56:37.545Z,10.90
2023-05-17T09:59:04.825Z,10.80
2023-05-17T10:01:31.906Z,10.70
2023-05-17T10:03:59.513Z,10.60
2023-05-17T10:06:43.749Z,10.50
2023-05-17T10:09:13.680Z,10.40
2023-05-17T10:11:41.377Z,10.40
2023-05-17T10:14:12.477Z,10.50
2023-05-17T10:19:06.764Z,10.90
2023-05-17T10:21:34.181Z,10.90
2023-05-17T10:24:04.410Z,10.80
2023-05-17T10:26:31.491Z,10.70
2023-05-17T10:29:02.836Z,10.70
2023-05-17T10:31:30.378Z,10.80
2023-05-17T10:33:58.036Z,10.80
2023-05-17T10:36:25.092Z,10.80
2023-05-17T10:38:52.154Z,10.80
2023-05-17T10:41:19.782Z,10.80
2023-05-17T10:43:47.254Z,10.70
2023-05-17T10:46:18.513Z,10.80
2023-05-17T10:48:46.807Z,10.90
2023-05-17T10:51:13.873Z,11.10
2023-05-17T10:53:59.716Z,11.30
2023-05-17T10:56:26.750Z,11.40
2023-05-17T10:59:12.498Z,11.30
2023-05-17T11:01:53.323Z,11.30
2023-05-17T11:04:25.772Z,11.30
2023-05-17T11:06:54.051Z,11.40
2023-05-17T11:09:24.292Z,11.60
2023-05-17T11:12:05.065Z,11.70
2023-05-17T11:14:51.024Z,11.80
2023-05-17T11:17:21.795Z,11.90
2023-05-17T11:19:49.970Z,11.90
2023-05-17T11:22:17.285Z,11.90
2023-05-17T11:24:44.365Z,11.80
2023-05-17T11:27:12.656Z,11.80
2023-05-17T11:29:39.931Z,11.70
2023-05-17T11:32:08.166Z,11.60
2023-05-17T11:34:35.306Z,11.60
2023-05-17T11:37:04.609Z,11.60
2023-05-17T11:39:31.649Z,11.50
2023-05-17T11:41:58.689Z,11.50
2023-05-17T11:44:29.579Z,11.40
2023-05-17T11:47:06.377Z,11.40
2023-05-17T11:49:36.231Z,11.50
2023-05-17T11:52:07.268Z,11.60
2023-05-17T11:54:34.660Z,11.70
2023-05-17T11:57:04.699Z,11.70
2023-05-17T11:59:37.288Z,11.60
2023-05-17T12:02:04.456Z,11.60
2023-05-17T12:04:34.573Z,11.50
2023-05-17T12:07:01.618Z,11.50
2023-05-17T12:09:29.203Z,11.50
2023-05-17T12:11:57.049Z,11.70
2023-05-17T12:14:24.155Z,11.80
2023-05-17T12:16:52.543Z,11.80
2023-05-17T12:19:20.218Z,11.70
2023-05-17T12:21:47.377Z,11.70
2023-05-17T12:24:14.488Z,11.70
2023-05-17T12:26:45.064Z,11.60
2023-05-17T12:29:13.616Z,11.60
2023-05-17T12:31:41.553Z,11.60
2023-05-17T12:34:16.623Z,11.50
2023-05-17T12:36:44.243Z,11.50
2023-05-17T12:39:12.079Z,11.50
2023-05-17T12:41:39.282Z,11.40
2023-05-17T12:46:39.693Z,11.40
2023-05-17T12:49:08.463Z,11.50
2023-05-17T12:51:43.098Z,11.70
2023-05-17T12:54:10.640Z,11.90
2023-05-17T12:56:37.663Z,12.00
2023-05-17T12:59:04.771Z,12.00
2023-05-17T13:01:51.433Z,11.90
2023-05-17T13:04:19.274Z,11.90
2023-05-17T13:06:47.599Z,11.80
2023-05-17T13:09:15.678Z,11.80
2023-05-17T13:11:42.730Z,11.70
2023-05-17T13:14:10.206Z,11.60
2023-05-17T13:16:37.566Z,11.60
2023-05-17T13:19:11.773Z,11.70
2023-05-17T13:21:38.884Z,11.90
2023-05-17T13:24:05.960Z,12.20
2023-05-17T13:26:32.978Z,12.20
2023-05-17T13:29:00.065Z,12.20
2023-05-17T13:31:27.107Z,12.10
2023-05-17T13:33:54.410Z,12.00
2023-05-17T13:36:21.483Z,11.80
2023-05-17T13:38:48.573Z,11.80
2023-05-17T13:41:15.660Z,11.70
2023-05-17T13:43:42.683Z,11.70
2023-05-17T13:46:09.694Z,11.60
2023-05-17T13:48:37.393Z,11.70
2023-05-17T13:51:05.677Z,11.70
2023-05-17T13:53:32.801Z,11.90
2023-05-17T13:55:59.898Z,12.00
2023-05-17T13:58:26.941Z,12.00
2023-05-17T14:00:54.039Z,12.00
2023-05-17T14:03:21.503Z,12.00
2023-05-17T14:05:50.475Z,11.90
2023-05-17T14:08:17.586Z,11.90
2023-05-17T14:10:44.612Z,11.90
2023-05-17T14:13:12.043Z,11.90
2023-05-17T14:15:39.753Z,11.90
2023-05-17T14:18:06.952Z,11.90
2023-05-17T14:20:34.006Z,12.10
2023-05-17T14:23:01.691Z,12.20
2023-05-17T14:25:28.825Z,12.30
2023-05-17T14:27:55.890Z,12.50
2023-05-17T14:30:22.939Z,12.60
2023-05-17T14:32:50.070Z,12.60
2023-05-17T14:35:17.416Z,12.50
2023-05-17T14:37:44.566Z,12.50
2023-05-17T14:40:12.160Z,12.50
2023-05-17T14:42:39.383Z,12.50
2023-05-17T14:45:06.707Z,12.50
2023-05-17T14:47:36.610Z,12.40
2023-05-17T14:50:04.339Z,12.30
2023-05-17T14:52:31.443Z,12.20
2023-05-17T14:54:59.248Z,12.20
2023-05-17T14:57:26.321Z,12.30
2023-05-17T14:59:53.428Z,12.40
2023-05-17T15:02:20.542Z,12.40
2023-05-17T15:04:47.995Z,12.50
2023-05-17T15:07:15.331Z,12.40
2023-05-17T15:09:43.026Z,12.40
2023-05-17T15:12:12.396Z,12.30
2023-05-17T15:14:40.958Z,12.20
2023-05-17T15:17:08.144Z,12.20
2023-05-17T15:19:35.469Z,12.10
2023-05-17T15:22:02.620Z,12.10
2023-05-17T15:24:29.738Z,12.00
2023-05-17T15:26:56.773Z,12.00
2023-05-17T15:29:23.857Z,12.00
2023-05-17T15:31:51.107Z,11.90
2023-05-17T15:34:18.328Z,11.90
2023-05-17T15:36:45.752Z,11.90
2023-05-17T15:39:12.810Z,11.90
2023-05-17T15:41:40.709Z,11.90
2023-05-17T15:44:08.948Z,11.90
2023-05-17T15:46:36.139Z,11.90
2023-05-17T15:49:03.314Z,11.80
2023-05-17T15:51:30.430Z,11.80
2023-05-17T15:53:57.498Z,11.80
2023-05-17T15:56:24.607Z,11.80
2023-05-17T15:58:51.885Z,11.80
2023-05-17T16:01:18.952Z,11.80
2023-05-17T16:03:46.661Z,11.80
2023-05-17T16:06:14.698Z,11.70
2023-05-17T16:08:42.059Z,11.70
2023-05-17T16:11:09.976Z,11.80
2023-05-17T16:13:37.115Z,11.80
2023-05-17T16:16:04.309Z,11.70
2023-05-17T16:18:32.165Z,11.70
2023-05-17T16:20:59.900Z,11.80
2023-05-17T16:23:27.292Z,11.80
2023-05-17T16:25:55.888Z,11.80
2023-05-17T16:28:23.098Z,11.80
2023-05-17T16:30:50.508Z,11.80
2023-05-17T16:33:20.146Z,11.70
2023-05-17T16:35:50.251Z,11.70
2023-05-17T16:38:17.453Z,11.70
2023-05-17T16:40:44.706Z,11.70
2023-05-17T16:43:15.817Z,11.70
2023-05-17T16:45:43.857Z,11.60
2023-05-17T16:48:14.264Z,11.60
2023-05-17T16:50:44.358Z,11.50
2023-05-17T16:53:14.889Z,11.50
2023-05-17T16:55:43.404Z,11.50
2023-05-17T16:58:10.469Z,11.50
2023-05-17T17:00:37.634Z,11.40
2023-05-17T17:03:06.593Z,11.40
2023-05-17T17:05:36.452Z,11.40
2023-05-17T17:08:03.609Z,11.40
2023-05-17T17:10:30.987Z,11.40
2023-05-17T17:12:58.250Z,11.30
2023-05-17T17:15:25.373Z,11.30
2023-05-17T17:17:52.527Z,11.30
2023-05-17T17:20:19.732Z,11.30
2023-05-17T17:22:46.883Z,11.20
2023-05-17T17:25:14.020Z,11.20
2023-05-17T17:27:41.061Z,11.20
2023-05-17T17:30:08.297Z,11.20
2023-05-17T17:32:35.603Z,11.20
2023-05-17T17:35:02.709Z,11.20
2023-05-17T17:37:29.848Z,11.10
2023-05-17T17:39:56.955Z,11.10
2023-05-17T17:42:24.020Z,11.10
2023-05-17T17:44:51.094Z,11.10
2023-05-17T17:47:18.290Z,11.00
2023-05-17T17:49:45.656Z,11.00
2023-05-17T17:52:12.721Z,11.00
2023-05-17T17:54:39.794Z,10.90
2023-05-17T17:57:06.854Z,10.90
2023-05-17T17:59:33.918Z,10.90
2023-05-17T18:02:01.059Z,10.80
2023-05-17T18:04:28.156Z,10.80
2023-05-17T18:06:55.372Z,10.80
2023-05-17T18:09:22.694Z,10.70
2023-05-17T18:11:49.813Z,10.70
2023-05-17T18:14:16.943Z,10.70
2023-05-17T18:16:44.034Z,10.60
2023-05-17T18:19:11.166Z,10.60
2023-05-17T18:21:38.421Z,10.60
2023-05-17T18:24:05.750Z,10.60
2023-05-17T18:26:32.772Z,10.60
2023-05-17T18:28:59.867Z,10.60
2023-05-17T18:31:26.889Z,10.50
2023-05-17T18:33:56.378Z,10.50
2023-05-17T18:36:24.250Z,10.50
2023-05-17T18:38:52.308Z,10.50
2023-05-17T18:41:19.377Z,10.40
2023-05-17T18:43:46.394Z,10.40
2023-05-17T18:46:13.399Z,10.40
2023-05-17T18:48:40.748Z,10.40
2023-05-17T18:51:07.907Z,10.30
2023-05-17T18:53:36.103Z,10.30
2023-05-17T18:56:03.195Z,10.30
2023-05-17T18:58:30.222Z,10.30
2023-05-17T19:00:57.280Z,10.20
2023-05-17T19:03:24.370Z,10.20
2023-05-17T19:05:51.385Z,10.20
2023-05-17T19:08:18.398Z,10.20
2023-05-17T19:10:45.607Z,10.10
2023-05-17T19:13:13.666Z,10.10
2023-05-17T19:15:41.470Z,10.00
2023-05-17T19:18:08.584Z,10.00
2023-05-17T19:20:35.801Z,10.00
2023-05-17T19:23:03.557Z,10.00
2023-05-17T19:25:30.608Z,10.00
2023-05-17T19:27:57.770Z,9.90
2023-05-17T19:30:24.802Z,9.90
2023-05-17T19:32:51.880Z,9.90
2023-05-17T19:35:19.071Z,9.90
2023-05-17T19:37:46.286Z,9.90
2023-05-17T19:40:14.735Z,9.80
2023-05-17T19:42:41.765Z,9.80
2023-05-17T19:45:09.728Z,9.90
2023-05-17T19:47:36.805Z,9.80
2023-05-17T19:50:04.181Z,9.80
2023-05-17T19:52:31.232Z,9.80
2023-05-17T19:54:58.293Z,9.80
2023-05-17T19:57:25.925Z,9.70
2023-05-17T19:59:53.038Z,9.70
2023-05-17T20:02:20.133Z,9.70
2023-05-17T20:04:47.407Z,9.70
2023-05-17T20:07:15.265Z,9.70
2023-05-17T20:09:42.323Z,9.70
2023-05-17T20:12:09.386Z,9.60
2023-05-17T20:14:37.672Z,9.60
2023-05-17T20:17:04.784Z,9.60
2023-05-17T20:19:31.954Z,9.60
2023-05-17T20:21:59.078Z,9.50
2023-05-17T20:24:28.842Z,9.50
2023-05-17T20:26:58.912Z,9.50
2023-05-17T20:29:26.068Z,9.50
2023-05-17T20:31:53.114Z,9.50
2023-05-17T20:34:20.502Z,9.50
2023-05-17T20:36:47.521Z,9.40
2023-05-17T20:39:15.257Z,9.40
2023-05-17T20:41:42.313Z,9.40
2023-05-17T20:44:09.340Z,9.40
2023-05-17T20:46:36.395Z,9.30
2023-05-17T20:49:03.408Z,9.30
2023-05-17T20:51:30.909Z,9.30
2023-05-17T20:53:57.961Z,9.30
2023-05-17T20:56:25.482Z,9.30
2023-05-17T20:58:52.498Z,9.20
2023-05-17T21:01:19.551Z,9.20
2023-05-17T21:03:46.978Z,9.20
2023-05-17T21:06:14.097Z,9.10
2023-05-17T21:08:42.705Z,9.10
2023-05-17T21:11:09.717Z,9.10
2023-05-17T21:13:36.940Z,9.10
2023-05-17T21:16:04.038Z,9.10
2023-05-17T21:18:31.352Z,9.10
2023-05-17T21:20:58.375Z,9.10
2023-05-17T21:23:25.436Z,9.10
2023-05-17T21:25:52.550Z,9.00
2023-05-17T21:28:19.617Z,9.00
2023-05-17T21:30:46.649Z,9.00
2023-05-17T21:33:13.760Z,9.00
2023-05-17T21:35:40.997Z,9.00
2023-05-17T21:38:08.108Z,9.00
2023-05-17T21:40:35.456Z,9.00
2023-05-17T21:43:02.543Z,9.00
2023-05-17T21:45:29.592Z,8.90
2023-05-17T21:47:56.614Z,8.90
2023-05-17T21:50:23.687Z,8.90
2023-05-17T21:52:50.860Z,8.90
2023-05-17T21:55:17.924Z,8.80
2023-05-17T21:57:45.018Z,8.80
2023-05-17T22:00:15.465Z,8.80
2023-05-17T22:02:45.858Z,8.70
2023-05-17T22:05:13.260Z,8.70
2023-05-17T22:07:40.568Z,8.60
2023-05-17T22:10:09.544Z,8.60
2023-05-17T22:12:38.082Z,8.60
2023-05-17T22:15:05.590Z,8.50
2023-05-17T22:17:43.187Z,8.60
2023-05-17T22:20:19.534Z,8.50
2023-05-17T22:22:46.694Z,8.50
2023-05-17T22:25:15.624Z,8.50
2023-05-17T22:27:42.913Z,8.50
2023-05-17T22:30:10.090Z,8.50
2023-05-17T22:32:37.358Z,8.50
2023-05-17T22:35:04.612Z,8.50
2023-05-17T22:37:32.788Z,8.50
2023-05-17T22:39:59.906Z,8.50
2023-05-17T22:42:26.998Z,8.50
2023-05-17T22:44:54.167Z,8.50
2023-05-17T22:47:22.893Z,8.50
2023-05-17T22:49:52.341Z,8.50
2023-05-17T22:52:19.805Z,8.50
2023-05-17T22:54:46.831Z,8.50
2023-05-17T22:57:13.925Z,8.50
2023-05-17T22:59:43.737Z,8.50
2023-05-17T23:02:11.872Z,8.50
2023-05-17T23:04:39.902Z,8.50
2023-05-17T23:07:09.898Z,8.50
2023-05-17T23:09:38.711Z,8.50
2023-05-17T23:12:06.391Z,8.50
2023-05-17T23:14:34.070Z,8.40
2023-05-17T23:17:01.955Z,8.40
2023-05-17T23:19:29.587Z,8.40
2023-05-17T23:21:56.636Z,8.40
2023-05-17T23:24:25.716Z,8.30
2023-05-17T23:26:52.821Z,8.30
2023-05-17T23:29:19.970Z,8.30
2023-05-17T23:31:48.539Z,8.30
2023-05-17T23:34:15.626Z,8.20
2023-05-17T23:36:42.621Z,8.20
2023-05-17T23:39:09.663Z,8.20
2023-05-17T23:41:39.714Z,8.10
2023-05-17T23:44:07.112Z,8.10
2023-05-17T23:46:34.220Z,8.10
2023-05-17T23:49:02.183Z,8.00
2023-05-17T23:51:29.457Z,8.00
2023-05-17T23:53:56.733Z,7.90
2023-05-17T23:56:23.784Z,7.90
2023-05-17T23:58:50.795Z,7.90
